sensor_id;sensor_type;location;lat;lon;timestamp;temperature;humidity
17208;DHT22;8720;48.488;9.202;2022-08-03T00:01:07;22.50;51.60
17208;DHT22;8720;48.488;9.202;2022-08-03T00:03:34;22.50;51.70
17208;DHT22;8720;48.488;9.202;2022-08-03T00:06:03;22.40;51.80
17208;DHT22;8720;48.488;9.202;2022-08-03T00:08:30;22.40;51.90
17208;DHT22;8720;48.488;9.202;2022-08-03T00:10:57;22.40;52.00
17208;DHT22;8720;48.488;9.202;2022-08-03T00:13:25;22.40;52.10
17208;DHT22;8720;48.488;9.202;2022-08-03T00:15:53;22.30;52.20
17208;DHT22;8720;48.488;9.202;2022-08-03T00:18:20;22.30;52.40
17208;DHT22;8720;48.488;9.202;2022-08-03T00:20:48;22.20;52.40
17208;DHT22;8720;48.488;9.202;2022-08-03T00:23:16;22.20;52.40
17208;DHT22;8720;48.488;9.202;2022-08-03T00:25:44;22.20;52.50
17208;DHT22;8720;48.488;9.202;2022-08-03T00:28:11;22.10;52.50
17208;DHT22;8720;48.488;9.202;2022-08-03T00:30:38;22.10;52.60
17208;DHT22;8720;48.488;9.202;2022-08-03T00:33:06;22.10;52.60
17208;DHT22;8720;48.488;9.202;2022-08-03T00:35:35;22.00;52.70
17208;DHT22;8720;48.488;9.202;2022-08-03T00:38:02;22.00;52.80
17208;DHT22;8720;48.488;9.202;2022-08-03T00:40:31;22.00;52.90
17208;DHT22;8720;48.488;9.202;2022-08-03T00:43:00;22.00;52.90
17208;DHT22;8720;48.488;9.202;2022-08-03T00:45:34;21.90;53.00
17208;DHT22;8720;48.488;9.202;2022-08-03T00:48:03;21.90;53.10
17208;DHT22;8720;48.488;9.202;2022-08-03T00:50:34;21.90;53.20
17208;DHT22;8720;48.488;9.202;2022-08-03T00:53:05;21.90;53.40
17208;DHT22;8720;48.488;9.202;2022-08-03T00:55:36;21.90;53.40
17208;DHT22;8720;48.488;9.202;2022-08-03T00:58:03;21.80;53.50
17208;DHT22;8720;48.488;9.202;2022-08-03T01:00:33;21.80;53.60
17208;DHT22;8720;48.488;9.202;2022-08-03T01:03:03;21.80;53.80
17208;DHT22;8720;48.488;9.202;2022-08-03T01:05:35;21.80;53.80
17208;DHT22;8720;48.488;9.202;2022-08-03T01:08:16;21.70;53.90
17208;DHT22;8720;48.488;9.202;2022-08-03T01:10:53;21.70;53.90
17208;DHT22;8720;48.488;9.202;2022-08-03T01:13:36;21.70;54.00
17208;DHT22;8720;48.488;9.202;2022-08-03T01:16:17;21.60;54.00
17208;DHT22;8720;48.488;9.202;2022-08-03T01:18:53;21.60;54.30
17208;DHT22;8720;48.488;9.202;2022-08-03T01:21:28;21.60;54.50
17208;DHT22;8720;48.488;9.202;2022-08-03T01:24:05;21.50;54.50
17208;DHT22;8720;48.488;9.202;2022-08-03T01:27:02;21.50;54.60
17208;DHT22;8720;48.488;9.202;2022-08-03T01:29:58;21.50;54.70
17208;DHT22;8720;48.488;9.202;2022-08-03T01:32:41;21.40;54.70
17208;DHT22;8720;48.488;9.202;2022-08-03T01:35:16;21.40;54.80
17208;DHT22;8720;48.488;9.202;2022-08-03T01:37:52;21.40;54.90
17208;DHT22;8720;48.488;9.202;2022-08-03T01:40:24;21.30;54.90
17208;DHT22;8720;48.488;9.202;2022-08-03T01:42:55;21.30;55.00
17208;DHT22;8720;48.488;9.202;2022-08-03T01:45:27;21.30;55.20
17208;DHT22;8720;48.488;9.202;2022-08-03T01:47:56;21.20;55.20
17208;DHT22;8720;48.488;9.202;2022-08-03T01:50:27;21.20;55.30
17208;DHT22;8720;48.488;9.202;2022-08-03T01:52:57;21.20;55.40
17208;DHT22;8720;48.488;9.202;2022-08-03T01:55:26;21.20;55.50
17208;DHT22;8720;48.488;9.202;2022-08-03T01:57:58;21.10;55.50
17208;DHT22;8720;48.488;9.202;2022-08-03T02:03:36;21.10;55.70
17208;DHT22;8720;48.488;9.202;2022-08-03T02:06:06;21.00;55.60
17208;DHT22;8720;48.488;9.202;2022-08-03T02:08:36;21.00;55.70
17208;DHT22;8720;48.488;9.202;2022-08-03T02:11:05;21.00;55.70
17208;DHT22;8720;48.488;9.202;2022-08-03T02:13:33;20.90;55.60
17208;DHT22;8720;48.488;9.202;2022-08-03T02:16:02;20.90;55.70
17208;DHT22;8720;48.488;9.202;2022-08-03T02:18:33;20.90;55.70
17208;DHT22;8720;48.488;9.202;2022-08-03T02:21:04;20.80;55.80
17208;DHT22;8720;48.488;9.202;2022-08-03T02:23:35;20.80;55.80
17208;DHT22;8720;48.488;9.202;2022-08-03T02:26:04;20.80;55.90
17208;DHT22;8720;48.488;9.202;2022-08-03T02:28:36;20.80;56.10
17208;DHT22;8720;48.488;9.202;2022-08-03T02:31:12;20.80;56.10
17208;DHT22;8720;48.488;9.202;2022-08-03T02:33:48;20.70;56.10
17208;DHT22;8720;48.488;9.202;2022-08-03T02:36:21;20.70;56.30
17208;DHT22;8720;48.488;9.202;2022-08-03T02:38:52;20.70;56.50
17208;DHT22;8720;48.488;9.202;2022-08-03T02:41:28;20.70;56.50
17208;DHT22;8720;48.488;9.202;2022-08-03T02:44:06;20.70;56.60
17208;DHT22;8720;48.488;9.202;2022-08-03T02:46:37;20.60;56.70
17208;DHT22;8720;48.488;9.202;2022-08-03T02:49:10;20.60;56.90
17208;DHT22;8720;48.488;9.202;2022-08-03T02:51:40;20.60;57.00
17208;DHT22;8720;48.488;9.202;2022-08-03T02:54:10;20.60;57.00
17208;DHT22;8720;48.488;9.202;2022-08-03T02:56:42;20.50;57.00
17208;DHT22;8720;48.488;9.202;2022-08-03T02:59:11;20.50;57.10
17208;DHT22;8720;48.488;9.202;2022-08-03T03:01:40;20.50;57.10
17208;DHT22;8720;48.488;9.202;2022-08-03T03:04:10;20.50;57.10
17208;DHT22;8720;48.488;9.202;2022-08-03T03:06:38;20.40;57.30
17208;DHT22;8720;48.488;9.202;2022-08-03T03:09:07;20.40;57.10
17208;DHT22;8720;48.488;9.202;2022-08-03T03:11:37;20.40;57.20
17208;DHT22;8720;48.488;9.202;2022-08-03T03:14:06;20.40;57.30
17208;DHT22;8720;48.488;9.202;2022-08-03T03:16:39;20.40;57.30
17208;DHT22;8720;48.488;9.202;2022-08-03T03:19:10;20.30;57.40
17208;DHT22;8720;48.488;9.202;2022-08-03T03:21:39;20.30;57.40
17208;DHT22;8720;48.488;9.202;2022-08-03T03:24:09;20.30;57.40
17208;DHT22;8720;48.488;9.202;2022-08-03T03:26:37;20.30;57.50
17208;DHT22;8720;48.488;9.202;2022-08-03T03:29:06;20.30;57.50
17208;DHT22;8720;48.488;9.202;2022-08-03T03:31:34;20.20;57.50
17208;DHT22;8720;48.488;9.202;2022-08-03T03:34:02;20.20;57.50
17208;DHT22;8720;48.488;9.202;2022-08-03T03:36:31;20.20;57.70
17208;DHT22;8720;48.488;9.202;2022-08-03T03:38:59;20.20;57.70
17208;DHT22;8720;48.488;9.202;2022-08-03T03:41:26;20.10;57.80
17208;DHT22;8720;48.488;9.202;2022-08-03T03:43:54;20.10;57.90
17208;DHT22;8720;48.488;9.202;2022-08-03T03:46:22;20.10;57.90
17208;DHT22;8720;48.488;9.202;2022-08-03T03:48:49;20.10;58.10
17208;DHT22;8720;48.488;9.202;2022-08-03T03:51:17;20.00;58.10
17208;DHT22;8720;48.488;9.202;2022-08-03T03:53:56;20.00;58.10
17208;DHT22;8720;48.488;9.202;2022-08-03T03:58:57;20.00;58.30
17208;DHT22;8720;48.488;9.202;2022-08-03T04:01:25;19.90;58.30
17208;DHT22;8720;48.488;9.202;2022-08-03T04:03:52;19.90;58.40
17208;DHT22;8720;48.488;9.202;2022-08-03T04:06:19;19.90;58.50
17208;DHT22;8720;48.488;9.202;2022-08-03T04:09:07;19.90;58.50
17208;DHT22;8720;48.488;9.202;2022-08-03T04:11:57;19.90;58.80
17208;DHT22;8720;48.488;9.202;2022-08-03T04:14:31;19.90;59.00
17208;DHT22;8720;48.488;9.202;2022-08-03T04:17:02;19.90;59.20
17208;DHT22;8720;48.488;9.202;2022-08-03T04:19:36;19.90;59.20
17208;DHT22;8720;48.488;9.202;2022-08-03T04:22:09;19.80;59.50
17208;DHT22;8720;48.488;9.202;2022-08-03T04:24:42;19.90;59.40
17208;DHT22;8720;48.488;9.202;2022-08-03T04:27:15;19.80;59.20
17208;DHT22;8720;48.488;9.202;2022-08-03T04:29:48;19.90;59.50
17208;DHT22;8720;48.488;9.202;2022-08-03T04:32:19;19.90;59.80
17208;DHT22;8720;48.488;9.202;2022-08-03T04:34:50;19.90;60.10
17208;DHT22;8720;48.488;9.202;2022-08-03T04:37:23;20.10;61.00
17208;DHT22;8720;48.488;9.202;2022-08-03T04:40:02;20.40;61.50
17208;DHT22;8720;48.488;9.202;2022-08-03T04:42:32;20.70;61.60
17208;DHT22;8720;48.488;9.202;2022-08-03T04:45:02;21.20;61.90
17208;DHT22;8720;48.488;9.202;2022-08-03T04:47:32;21.70;61.70
17208;DHT22;8720;48.488;9.202;2022-08-03T04:50:00;22.10;61.10
17208;DHT22;8720;48.488;9.202;2022-08-03T04:52:30;22.70;61.00
17208;DHT22;8720;48.488;9.202;2022-08-03T04:54:59;23.20;60.00
17208;DHT22;8720;48.488;9.202;2022-08-03T04:57:26;23.80;59.00
17208;DHT22;8720;48.488;9.202;2022-08-03T04:59:54;24.30;58.60
17208;DHT22;8720;48.488;9.202;2022-08-03T05:02:21;24.80;57.70
17208;DHT22;8720;48.488;9.202;2022-08-03T05:04:49;25.30;56.70
17208;DHT22;8720;48.488;9.202;2022-08-03T05:07:17;25.70;55.80
17208;DHT22;8720;48.488;9.202;2022-08-03T05:09:45;26.10;54.60
17208;DHT22;8720;48.488;9.202;2022-08-03T05:12:14;26.50;53.90
17208;DHT22;8720;48.488;9.202;2022-08-03T05:14:41;26.90;52.60
17208;DHT22;8720;48.488;9.202;2022-08-03T05:17:08;27.20;52.50
17208;DHT22;8720;48.488;9.202;2022-08-03T05:19:36;27.60;51.60
17208;DHT22;8720;48.488;9.202;2022-08-03T05:22:03;27.90;51.00
17208;DHT22;8720;48.488;9.202;2022-08-03T05:24:30;28.20;50.40
17208;DHT22;8720;48.488;9.202;2022-08-03T05:26:57;28.50;49.80
17208;DHT22;8720;48.488;9.202;2022-08-03T05:29:26;28.80;49.20
17208;DHT22;8720;48.488;9.202;2022-08-03T05:31:53;29.10;48.20
17208;DHT22;8720;48.488;9.202;2022-08-03T05:34:21;29.50;48.30
17208;DHT22;8720;48.488;9.202;2022-08-03T05:36:48;29.80;47.80
17208;DHT22;8720;48.488;9.202;2022-08-03T05:39:16;30.10;47.10
17208;DHT22;8720;48.488;9.202;2022-08-03T05:41:43;30.40;46.60
17208;DHT22;8720;48.488;9.202;2022-08-03T05:44:10;30.70;46.10
17208;DHT22;8720;48.488;9.202;2022-08-03T05:46:41;30.90;45.40
17208;DHT22;8720;48.488;9.202;2022-08-03T05:49:08;31.10;44.20
17208;DHT22;8720;48.488;9.202;2022-08-03T05:51:35;31.00;44.00
17208;DHT22;8720;48.488;9.202;2022-08-03T05:54:03;30.80;43.30
17208;DHT22;8720;48.488;9.202;2022-08-03T05:56:30;30.60;42.80
17208;DHT22;8720;48.488;9.202;2022-08-03T05:58:57;30.20;43.20
17208;DHT22;8720;48.488;9.202;2022-08-03T06:01:24;30.10;43.90
17208;DHT22;8720;48.488;9.202;2022-08-03T06:03:53;30.10;44.40
17208;DHT22;8720;48.488;9.202;2022-08-03T06:06:21;30.20;44.30
17208;DHT22;8720;48.488;9.202;2022-08-03T06:08:48;30.40;44.50
17208;DHT22;8720;48.488;9.202;2022-08-03T06:11:15;30.70;44.10
17208;DHT22;8720;48.488;9.202;2022-08-03T06:13:43;30.90;43.70
17208;DHT22;8720;48.488;9.202;2022-08-03T06:16:10;31.20;43.30
17208;DHT22;8720;48.488;9.202;2022-08-03T06:18:38;31.40;43.10
17208;DHT22;8720;48.488;9.202;2022-08-03T06:21:07;31.50;42.80
17208;DHT22;8720;48.488;9.202;2022-08-03T06:23:35;31.80;42.30
17208;DHT22;8720;48.488;9.202;2022-08-03T06:26:02;32.10;42.50
17208;DHT22;8720;48.488;9.202;2022-08-03T06:28:30;32.40;42.10
17208;DHT22;8720;48.488;9.202;2022-08-03T06:31:00;32.60;41.70
17208;DHT22;8720;48.488;9.202;2022-08-03T06:33:27;32.90;41.50
17208;DHT22;8720;48.488;9.202;2022-08-03T06:35:55;33.20;41.30
17208;DHT22;8720;48.488;9.202;2022-08-03T06:38:23;33.50;40.90
17208;DHT22;8720;48.488;9.202;2022-08-03T06:40:51;33.70;40.20
17208;DHT22;8720;48.488;9.202;2022-08-03T06:43:18;33.90;40.30
17208;DHT22;8720;48.488;9.202;2022-08-03T06:45:45;34.20;39.80
17208;DHT22;8720;48.488;9.202;2022-08-03T06:48:13;34.40;39.30
17208;DHT22;8720;48.488;9.202;2022-08-03T06:50:41;34.60;38.70
17208;DHT22;8720;48.488;9.202;2022-08-03T06:53:09;34.60;38.20
17208;DHT22;8720;48.488;9.202;2022-08-03T06:55:38;34.70;38.30
17208;DHT22;8720;48.488;9.202;2022-08-03T06:58:05;34.90;37.90
17208;DHT22;8720;48.488;9.202;2022-08-03T07:00:32;35.00;38.80
17208;DHT22;8720;48.488;9.202;2022-08-03T07:03:00;35.10;37.90
17208;DHT22;8720;48.488;9.202;2022-08-03T07:05:27;35.20;38.40
17208;DHT22;8720;48.488;9.202;2022-08-03T07:07:55;35.30;37.40
17208;DHT22;8720;48.488;9.202;2022-08-03T07:10:24;35.40;37.30
17208;DHT22;8720;48.488;9.202;2022-08-03T07:12:53;35.50;37.20
17208;DHT22;8720;48.488;9.202;2022-08-03T07:15:21;35.60;36.70
17208;DHT22;8720;48.488;9.202;2022-08-03T07:17:48;35.60;36.70
17208;DHT22;8720;48.488;9.202;2022-08-03T07:20:15;35.70;36.60
17208;DHT22;8720;48.488;9.202;2022-08-03T07:22:44;35.70;35.90
17208;DHT22;8720;48.488;9.202;2022-08-03T07:25:11;35.70;35.70
17208;DHT22;8720;48.488;9.202;2022-08-03T07:27:42;35.70;35.50
17208;DHT22;8720;48.488;9.202;2022-08-03T07:30:13;35.70;35.00
17208;DHT22;8720;48.488;9.202;2022-08-03T07:32:42;35.60;35.30
17208;DHT22;8720;48.488;9.202;2022-08-03T07:35:10;35.70;35.70
17208;DHT22;8720;48.488;9.202;2022-08-03T07:37:37;35.60;35.50
17208;DHT22;8720;48.488;9.202;2022-08-03T07:40:05;35.60;35.40
17208;DHT22;8720;48.488;9.202;2022-08-03T07:42:33;35.60;35.50
17208;DHT22;8720;48.488;9.202;2022-08-03T07:45:00;35.60;35.50
17208;DHT22;8720;48.488;9.202;2022-08-03T07:47:30;35.60;35.50
17208;DHT22;8720;48.488;9.202;2022-08-03T07:49:57;35.60;34.90
17208;DHT22;8720;48.488;9.202;2022-08-03T07:52:24;35.60;35.10
17208;DHT22;8720;48.488;9.202;2022-08-03T07:55:09;35.60;34.90
17208;DHT22;8720;48.488;9.202;2022-08-03T07:57:36;35.50;35.00
17208;DHT22;8720;48.488;9.202;2022-08-03T08:00:06;35.40;34.90
17208;DHT22;8720;48.488;9.202;2022-08-03T08:02:42;35.20;35.00
17208;DHT22;8720;48.488;9.202;2022-08-03T08:05:10;35.20;35.00
17208;DHT22;8720;48.488;9.202;2022-08-03T08:07:38;35.10;35.40
17208;DHT22;8720;48.488;9.202;2022-08-03T08:10:07;35.10;36.00
17208;DHT22;8720;48.488;9.202;2022-08-03T08:12:35;35.10;35.90
17208;DHT22;8720;48.488;9.202;2022-08-03T08:15:06;35.10;36.00
17208;DHT22;8720;48.488;9.202;2022-08-03T08:17:42;35.10;35.70
17208;DHT22;8720;48.488;9.202;2022-08-03T08:20:11;35.10;34.90
17208;DHT22;8720;48.488;9.202;2022-08-03T08:22:41;35.10;35.80
17208;DHT22;8720;48.488;9.202;2022-08-03T08:25:11;35.20;35.80
17208;DHT22;8720;48.488;9.202;2022-08-03T08:27:43;35.30;35.60
17208;DHT22;8720;48.488;9.202;2022-08-03T08:30:12;35.30;34.90
17208;DHT22;8720;48.488;9.202;2022-08-03T08:32:44;35.40;35.30
17208;DHT22;8720;48.488;9.202;2022-08-03T08:35:11;35.50;35.40
17208;DHT22;8720;48.488;9.202;2022-08-03T08:37:39;35.50;35.50
17208;DHT22;8720;48.488;9.202;2022-08-03T08:40:08;35.50;36.00
17208;DHT22;8720;48.488;9.202;2022-08-03T08:42:38;35.60;35.10
17208;DHT22;8720;48.488;9.202;2022-08-03T08:45:07;35.60;35.50
17208;DHT22;8720;48.488;9.202;2022-08-03T08:47:38;35.60;35.20
17208;DHT22;8720;48.488;9.202;2022-08-03T08:50:08;35.60;34.90
17208;DHT22;8720;48.488;9.202;2022-08-03T08:52:40;35.70;35.00
17208;DHT22;8720;48.488;9.202;2022-08-03T08:55:12;35.70;35.10
17208;DHT22;8720;48.488;9.202;2022-08-03T08:57:47;35.70;35.00
17208;DHT22;8720;48.488;9.202;2022-08-03T09:00:17;35.60;35.20
17208;DHT22;8720;48.488;9.202;2022-08-03T09:02:45;35.60;35.70
17208;DHT22;8720;48.488;9.202;2022-08-03T09:05:15;35.50;35.40
17208;DHT22;8720;48.488;9.202;2022-08-03T09:07:45;35.40;34.90
17208;DHT22;8720;48.488;9.202;2022-08-03T09:10:15;35.20;35.00
17208;DHT22;8720;48.488;9.202;2022-08-03T09:12:45;35.00;34.90
17208;DHT22;8720;48.488;9.202;2022-08-03T09:15:16;35.00;35.20
17208;DHT22;8720;48.488;9.202;2022-08-03T09:17:45;34.80;35.30
17208;DHT22;8720;48.488;9.202;2022-08-03T09:20:14;34.70;35.50
17208;DHT22;8720;48.488;9.202;2022-08-03T09:22:53;34.60;35.10
17208;DHT22;8720;48.488;9.202;2022-08-03T09:25:28;34.50;34.70
17208;DHT22;8720;48.488;9.202;2022-08-03T09:28:07;34.50;35.10
17208;DHT22;8720;48.488;9.202;2022-08-03T09:30:37;34.40;34.70
17208;DHT22;8720;48.488;9.202;2022-08-03T09:33:07;34.30;35.50
17208;DHT22;8720;48.488;9.202;2022-08-03T09:35:42;34.20;35.50
17208;DHT22;8720;48.488;9.202;2022-08-03T09:38:13;34.20;35.20
17208;DHT22;8720;48.488;9.202;2022-08-03T09:40:42;34.10;35.20
17208;DHT22;8720;48.488;9.202;2022-08-03T09:43:12;34.10;35.80
17208;DHT22;8720;48.488;9.202;2022-08-03T09:45:39;34.10;35.70
17208;DHT22;8720;48.488;9.202;2022-08-03T09:48:21;34.00;35.70
17208;DHT22;8720;48.488;9.202;2022-08-03T09:50:52;33.90;35.70
17208;DHT22;8720;48.488;9.202;2022-08-03T09:53:21;33.90;35.70
17208;DHT22;8720;48.488;9.202;2022-08-03T09:55:53;33.80;35.90
17208;DHT22;8720;48.488;9.202;2022-08-03T09:58:22;33.70;36.10
17208;DHT22;8720;48.488;9.202;2022-08-03T10:00:55;33.70;36.10
17208;DHT22;8720;48.488;9.202;2022-08-03T10:03:25;33.60;35.80
17208;DHT22;8720;48.488;9.202;2022-08-03T10:05:55;33.60;36.20
17208;DHT22;8720;48.488;9.202;2022-08-03T10:08:23;33.50;35.80
17208;DHT22;8720;48.488;9.202;2022-08-03T10:10:51;33.50;35.80
17208;DHT22;8720;48.488;9.202;2022-08-03T10:13:20;33.40;35.30
17208;DHT22;8720;48.488;9.202;2022-08-03T10:15:48;33.40;35.60
17208;DHT22;8720;48.488;9.202;2022-08-03T10:18:16;33.40;35.60
17208;DHT22;8720;48.488;9.202;2022-08-03T10:20:47;33.30;35.80
17208;DHT22;8720;48.488;9.202;2022-08-03T10:23:19;33.30;35.30
17208;DHT22;8720;48.488;9.202;2022-08-03T10:25:53;33.20;35.40
17208;DHT22;8720;48.488;9.202;2022-08-03T10:28:31;33.10;35.40
17208;DHT22;8720;48.488;9.202;2022-08-03T10:31:01;33.10;35.90
17208;DHT22;8720;48.488;9.202;2022-08-03T10:33:36;33.10;36.00
17208;DHT22;8720;48.488;9.202;2022-08-03T10:36:06;33.00;36.00
17208;DHT22;8720;48.488;9.202;2022-08-03T10:38:38;33.00;36.10
17208;DHT22;8720;48.488;9.202;2022-08-03T10:41:11;33.00;36.10
17208;DHT22;8720;48.488;9.202;2022-08-03T10:43:45;33.00;36.00
17208;DHT22;8720;48.488;9.202;2022-08-03T10:46:18;33.00;35.90
17208;DHT22;8720;48.488;9.202;2022-08-03T10:48:47;33.00;35.90
17208;DHT22;8720;48.488;9.202;2022-08-03T10:51:18;33.00;36.00
17208;DHT22;8720;48.488;9.202;2022-08-03T10:53:48;33.00;35.80
17208;DHT22;8720;48.488;9.202;2022-08-03T10:56:39;32.90;35.20
17208;DHT22;8720;48.488;9.202;2022-08-03T10:59:56;32.90;35.00
17208;DHT22;8720;48.488;9.202;2022-08-03T11:03:08;32.80;34.40
17208;DHT22;8720;48.488;9.202;2022-08-03T11:05:40;32.80;35.10
17208;DHT22;8720;48.488;9.202;2022-08-03T11:08:39;32.80;35.30
17208;DHT22;8720;48.488;9.202;2022-08-03T11:11:25;32.70;34.80
17208;DHT22;8720;48.488;9.202;2022-08-03T11:13:59;32.70;34.50
17208;DHT22;8720;48.488;9.202;2022-08-03T11:16:31;32.70;34.80
17208;DHT22;8720;48.488;9.202;2022-08-03T11:19:02;32.70;35.30
17208;DHT22;8720;48.488;9.202;2022-08-03T11:21:53;32.70;35.30
17208;DHT22;8720;48.488;9.202;2022-08-03T11:24:59;32.70;34.50
17208;DHT22;8720;48.488;9.202;2022-08-03T11:27:29;32.70;34.70
17208;DHT22;8720;48.488;9.202;2022-08-03T11:30:03;32.70;35.10
17208;DHT22;8720;48.488;9.202;2022-08-03T11:35:33;32.80;34.70
17208;DHT22;8720;48.488;9.202;2022-08-03T11:38:11;32.80;35.40
17208;DHT22;8720;48.488;9.202;2022-08-03T11:40:41;32.80;34.80
17208;DHT22;8720;48.488;9.202;2022-08-03T11:43:43;32.80;35.00
17208;DHT22;8720;48.488;9.202;2022-08-03T11:46:12;32.80;34.30
17208;DHT22;8720;48.488;9.202;2022-08-03T11:48:44;32.90;34.90
17208;DHT22;8720;48.488;9.202;2022-08-03T11:51:21;32.90;35.10
17208;DHT22;8720;48.488;9.202;2022-08-03T11:53:53;32.90;34.50
17208;DHT22;8720;48.488;9.202;2022-08-03T11:56:21;33.00;34.50
17208;DHT22;8720;48.488;9.202;2022-08-03T11:58:52;33.00;34.80
17208;DHT22;8720;48.488;9.202;2022-08-03T12:01:22;33.00;34.50
17208;DHT22;8720;48.488;9.202;2022-08-03T12:03:50;33.00;34.60
17208;DHT22;8720;48.488;9.202;2022-08-03T12:06:18;33.10;34.10
17208;DHT22;8720;48.488;9.202;2022-08-03T12:08:45;33.10;34.20
17208;DHT22;8720;48.488;9.202;2022-08-03T12:11:14;33.00;34.30
17208;DHT22;8720;48.488;9.202;2022-08-03T12:13:43;33.10;34.50
17208;DHT22;8720;48.488;9.202;2022-08-03T12:16:18;33.10;34.50
17208;DHT22;8720;48.488;9.202;2022-08-03T12:18:54;33.10;34.00
17208;DHT22;8720;48.488;9.202;2022-08-03T12:21:22;33.10;34.00
17208;DHT22;8720;48.488;9.202;2022-08-03T12:23:50;33.20;34.40
17208;DHT22;8720;48.488;9.202;2022-08-03T12:26:21;33.20;34.10
17208;DHT22;8720;48.488;9.202;2022-08-03T12:28:49;33.30;34.00
17208;DHT22;8720;48.488;9.202;2022-08-03T12:31:18;33.30;33.50
17208;DHT22;8720;48.488;9.202;2022-08-03T12:33:58;33.30;33.90
17208;DHT22;8720;48.488;9.202;2022-08-03T12:36:30;33.30;32.90
17208;DHT22;8720;48.488;9.202;2022-08-03T12:39:00;33.40;33.60
17208;DHT22;8720;48.488;9.202;2022-08-03T12:41:31;33.40;33.20
17208;DHT22;8720;48.488;9.202;2022-08-03T12:44:00;33.40;33.30
17208;DHT22;8720;48.488;9.202;2022-08-03T12:46:32;33.40;33.20
17208;DHT22;8720;48.488;9.202;2022-08-03T12:49:03;33.40;32.90
17208;DHT22;8720;48.488;9.202;2022-08-03T12:51:34;33.50;33.20
17208;DHT22;8720;48.488;9.202;2022-08-03T12:54:04;33.50;33.40
17208;DHT22;8720;48.488;9.202;2022-08-03T12:56:32;33.50;33.20
17208;DHT22;8720;48.488;9.202;2022-08-03T12:58:59;33.60;33.00
17208;DHT22;8720;48.488;9.202;2022-08-03T13:01:36;33.60;32.80
17208;DHT22;8720;48.488;9.202;2022-08-03T13:04:04;33.60;32.20
17208;DHT22;8720;48.488;9.202;2022-08-03T13:06:31;33.60;32.60
17208;DHT22;8720;48.488;9.202;2022-08-03T13:09:04;33.70;32.70
17208;DHT22;8720;48.488;9.202;2022-08-03T13:11:33;33.70;32.40
17208;DHT22;8720;48.488;9.202;2022-08-03T13:14:01;33.60;32.60
17208;DHT22;8720;48.488;9.202;2022-08-03T13:16:28;33.70;32.50
17208;DHT22;8720;48.488;9.202;2022-08-03T13:18:58;33.70;32.70
17208;DHT22;8720;48.488;9.202;2022-08-03T13:21:25;33.70;32.70
17208;DHT22;8720;48.488;9.202;2022-08-03T13:23:53;33.80;32.50
17208;DHT22;8720;48.488;9.202;2022-08-03T13:26:21;33.80;32.20
17208;DHT22;8720;48.488;9.202;2022-08-03T13:28:49;33.90;33.10
17208;DHT22;8720;48.488;9.202;2022-08-03T13:31:16;33.90;32.20
17208;DHT22;8720;48.488;9.202;2022-08-03T13:33:43;34.00;32.00
17208;DHT22;8720;48.488;9.202;2022-08-03T13:36:12;34.00;31.90
17208;DHT22;8720;48.488;9.202;2022-08-03T13:38:39;34.00;31.60
17208;DHT22;8720;48.488;9.202;2022-08-03T13:41:09;34.10;31.90
17208;DHT22;8720;48.488;9.202;2022-08-03T13:43:36;34.10;31.80
17208;DHT22;8720;48.488;9.202;2022-08-03T13:46:03;34.10;31.70
17208;DHT22;8720;48.488;9.202;2022-08-03T13:48:31;34.20;31.60
17208;DHT22;8720;48.488;9.202;2022-08-03T13:50:58;34.20;31.50
17208;DHT22;8720;48.488;9.202;2022-08-03T13:53:27;34.30;31.30
17208;DHT22;8720;48.488;9.202;2022-08-03T13:55:54;34.30;31.00
17208;DHT22;8720;48.488;9.202;2022-08-03T13:58:21;34.30;31.20
17208;DHT22;8720;48.488;9.202;2022-08-03T14:00:49;34.30;31.20
17208;DHT22;8720;48.488;9.202;2022-08-03T14:03:16;34.30;31.10
17208;DHT22;8720;48.488;9.202;2022-08-03T14:05:43;34.30;31.00
17208;DHT22;8720;48.488;9.202;2022-08-03T14:08:12;34.30;31.00
17208;DHT22;8720;48.488;9.202;2022-08-03T14:10:42;34.40;31.00
17208;DHT22;8720;48.488;9.202;2022-08-03T14:13:12;34.40;30.70
17208;DHT22;8720;48.488;9.202;2022-08-03T14:15:40;34.40;30.80
17208;DHT22;8720;48.488;9.202;2022-08-03T14:18:08;34.40;30.90
17208;DHT22;8720;48.488;9.202;2022-08-03T14:20:36;34.40;30.90
17208;DHT22;8720;48.488;9.202;2022-08-03T14:23:03;34.40;30.80
17208;DHT22;8720;48.488;9.202;2022-08-03T14:25:31;34.40;30.70
17208;DHT22;8720;48.488;9.202;2022-08-03T14:28:00;34.40;30.80
17208;DHT22;8720;48.488;9.202;2022-08-03T14:30:27;34.40;30.90
17208;DHT22;8720;48.488;9.202;2022-08-03T14:32:54;34.50;31.00
17208;DHT22;8720;48.488;9.202;2022-08-03T14:35:22;34.40;30.60
17208;DHT22;8720;48.488;9.202;2022-08-03T14:37:49;34.40;30.50
17208;DHT22;8720;48.488;9.202;2022-08-03T14:40:17;34.50;30.70
17208;DHT22;8720;48.488;9.202;2022-08-03T14:42:45;34.50;30.70
17208;DHT22;8720;48.488;9.202;2022-08-03T14:45:14;34.50;30.70
17208;DHT22;8720;48.488;9.202;2022-08-03T14:47:41;34.40;30.60
17208;DHT22;8720;48.488;9.202;2022-08-03T14:50:09;34.40;31.60
17208;DHT22;8720;48.488;9.202;2022-08-03T14:52:36;34.40;30.60
17208;DHT22;8720;48.488;9.202;2022-08-03T14:55:04;34.40;30.60
17208;DHT22;8720;48.488;9.202;2022-08-03T14:57:32;34.40;30.70
17208;DHT22;8720;48.488;9.202;2022-08-03T14:59:59;34.40;30.80
17208;DHT22;8720;48.488;9.202;2022-08-03T15:02:27;34.50;30.70
17208;DHT22;8720;48.488;9.202;2022-08-03T15:04:55;34.50;30.60
17208;DHT22;8720;48.488;9.202;2022-08-03T15:07:22;34.50;30.70
17208;DHT22;8720;48.488;9.202;2022-08-03T15:09:49;34.50;30.50
17208;DHT22;8720;48.488;9.202;2022-08-03T15:12:17;34.50;30.40
17208;DHT22;8720;48.488;9.202;2022-08-03T15:14:44;34.50;30.10
17208;DHT22;8720;48.488;9.202;2022-08-03T15:17:11;34.50;30.10
17208;DHT22;8720;48.488;9.202;2022-08-03T15:19:40;34.60;30.20
17208;DHT22;8720;48.488;9.202;2022-08-03T15:22:07;34.60;30.30
17208;DHT22;8720;48.488;9.202;2022-08-03T15:24:34;34.60;30.00
17208;DHT22;8720;48.488;9.202;2022-08-03T15:27:02;34.60;30.00
17208;DHT22;8720;48.488;9.202;2022-08-03T15:29:29;34.60;30.00
17208;DHT22;8720;48.488;9.202;2022-08-03T15:31:56;34.60;29.90
17208;DHT22;8720;48.488;9.202;2022-08-03T15:34:23;34.60;30.40
17208;DHT22;8720;48.488;9.202;2022-08-03T15:36:52;34.60;29.90
17208;DHT22;8720;48.488;9.202;2022-08-03T15:39:19;34.60;29.70
17208;DHT22;8720;48.488;9.202;2022-08-03T15:41:46;34.60;29.90
17208;DHT22;8720;48.488;9.202;2022-08-03T15:44:18;34.60;30.30
17208;DHT22;8720;48.488;9.202;2022-08-03T15:46:46;34.60;29.70
17208;DHT22;8720;48.488;9.202;2022-08-03T15:49:13;34.60;29.80
17208;DHT22;8720;48.488;9.202;2022-08-03T15:51:41;34.60;30.00
17208;DHT22;8720;48.488;9.202;2022-08-03T15:54:09;34.50;29.80
17208;DHT22;8720;48.488;9.202;2022-08-03T15:56:37;34.50;29.80
17208;DHT22;8720;48.488;9.202;2022-08-03T15:59:06;34.50;29.80
17208;DHT22;8720;48.488;9.202;2022-08-03T16:01:33;34.50;29.80
17208;DHT22;8720;48.488;9.202;2022-08-03T16:04:00;34.50;29.80
17208;DHT22;8720;48.488;9.202;2022-08-03T16:06:28;34.50;29.70
17208;DHT22;8720;48.488;9.202;2022-08-03T16:08:55;34.50;29.60
17208;DHT22;8720;48.488;9.202;2022-08-03T16:11:23;34.50;29.60
17208;DHT22;8720;48.488;9.202;2022-08-03T16:13:51;34.50;29.60